This is the latest recevied weather packets stored in our database for station/object NK7I. If no packets are shown the sender has not sent any weather packets the latest 10 day(s).
| Time | Temp. | Humidity | Pressure | Rain* | Wind** | Luminosity | Snow |
|---|---|---|---|---|---|---|---|
| 1777658782 | 18.33° C | 45% | 1017.6 hPa | 0 mm | - | 1192 W/m² | - |
| 1777658483 | 17.78° C | 45% | 1017.7 hPa | 0 mm | - | 1148 W/m² | - |
| 1777657882 | 17.78° C | 46% | 1017.8 hPa | 0 mm | - | 1165 W/m² | - |
| 1777656983 | 17.22° C | 51% | 1018 hPa | 0 mm | - | 1123 W/m² | - |
| 1777656682 | 17.22° C | 50% | 1018.1 hPa | 0 mm | - | 1111 W/m² | - |
| 1777656383 | 16.67° C | 51% | 1018.1 hPa | 0 mm | - | 1097 W/m² | - |
| 1777655782 | 16.11° C | 53% | 1018.3 hPa | 0 mm | - | 1065 W/m² | - |
| 1777655482 | 15.56° C | 55% | 1018.4 hPa | 0 mm | - | 1051 W/m² | - |
| 1777655182 | 15.56° C | 53% | 1018.4 hPa | 0 mm | - | 1039 W/m² | - |
| 1777654882 | 15.56° C | 55% | 1018.4 hPa | 0 mm | - | 1027 W/m² | - |
| 1777653683 | 14.44° C | 56% | 1018.8 hPa | 0 mm | - | 949 W/m² | - |
| 1777653382 | 14.44° C | 55% | 1018.9 hPa | 0 mm | - | 932 W/m² | - |
| 1777653082 | 14.44° C | 60% | 1018.9 hPa | 0 mm | - | 916 W/m² | - |
| 1777652782 | 13.89° C | 58% | 1018.9 hPa | 0 mm | - | 895 W/m² | - |
| 1777652482 | 13.89° C | 60% | 1019 hPa | 0 mm | - | 870 W/m² | - |
| 1777652182 | 13.89° C | 63% | 1019 hPa | 0 mm | - | 807 W/m² | - |
| 1777651884 | 13.33° C | 63% | 1019 hPa | 0 mm | - | 687 W/m² | - |
| 1777651582 | 12.78° C | 62% | 1019.1 hPa | 0 mm | - | 571 W/m² | - |
| 1777651282 | 12.78° C | 65% | 1019.1 hPa | 0 mm | - | 506 W/m² | - |
| 1777650982 | 12.22° C | 65% | 1019.2 hPa | 0 mm | - | 501 W/m² | - |
| 1777650682 | 11.67° C | 65% | 1019.3 hPa | 0 mm | - | 519 W/m² | - |
| 1777650382 | 11.11° C | 67% | 1019.4 hPa | 0 mm | - | 555 W/m² | - |
| 1777650082 | 11.11° C | 67% | 1019.5 hPa | 0 mm | - | 577 W/m² | - |
| 1777649782 | 10.56° C | 71% | 1019.5 hPa | 0 mm | - | 580 W/m² | - |
| 1777649482 | 10° C | 74% | 1019.6 hPa | 0 mm | - | 538 W/m² | - |
* Rain latest hour (hover to see other rain measurements)
** Current wind speed in m/s (hover to see current wind gust speed)